sensor_id;sensor_type;location;lat;lon;timestamp;P1;durP1;ratioP1;P2;durP2;ratioP2
39294;SDS011;52361;52.100;5.248;2022-12-19T00:00:04;23.3;;;12.0;;
39294;SDS011;52361;52.100;5.248;2022-12-19T00:01:41;18.41;;;10.3;;
39294;SDS011;52361;52.100;5.248;2022-12-19T00:03:18;18.3;;;10.0;;
39294;SDS011;52361;52.100;5.248;2022-12-19T00:06:30;20.9;;;10.8;;
39294;SDS011;52361;52.100;5.248;2022-12-19T00:08:11;23.7;;;10.6;;
39294;SDS011;52361;52.100;5.248;2022-12-19T00:09:50;16.0;;;9.6;;
39294;SDS011;52361;52.100;5.248;2022-12-19T00:11:26;19.3;;;10.5;;
39294;SDS011;52361;52.100;5.248;2022-12-19T00:14:40;18.41;;;9.71;;
39294;SDS011;52361;52.100;5.248;2022-12-19T00:16:17;22.3;;;10.1;;
39294;SDS011;52361;52.100;5.248;2022-12-19T00:17:55;19.11;;;9.71;;
39294;SDS011;52361;52.100;5.248;2022-12-19T00:21:08;19.3;;;9.9;;
39294;SDS011;52361;52.100;5.248;2022-12-19T00:22:47;16.9;;;9.71;;
39294;SDS011;52361;52.100;5.248;2022-12-19T00:24:23;20.11;;;10.5;;
39294;SDS011;52361;52.100;5.248;2022-12-19T00:26:16;18.2;;;10.4;;
39294;SDS011;52361;52.100;5.248;2022-12-19T00:29:29;22.3;;;11.1;;
39294;SDS011;52361;52.100;5.248;2022-12-19T00:31:05;20.11;;;9.6;;
39294;SDS011;52361;52.100;5.248;2022-12-19T00:32:42;20.41;;;10.6;;
39294;SDS011;52361;52.100;5.248;2022-12-19T00:34:19;22.6;;;11.0;;
39294;SDS011;52361;52.100;5.248;2022-12-19T00:37:33;20.9;;;9.81;;
39294;SDS011;52361;52.100;5.248;2022-12-19T00:39:09;20.7;;;9.6;;
39294;SDS011;52361;52.100;5.248;2022-12-19T00:40:45;22.5;;;11.0;;
39294;SDS011;52361;52.100;5.248;2022-12-19T00:43:59;17.41;;;8.81;;
39294;SDS011;52361;52.100;5.248;2022-12-19T00:45:36;17.3;;;9.5;;
39294;SDS011;52361;52.100;5.248;2022-12-19T00:47:13;17.3;;;9.5;;
39294;SDS011;52361;52.100;5.248;2022-12-19T00:50:26;19.8;;;9.6;;
39294;SDS011;52361;52.100;5.248;2022-12-19T00:52:02;15.0;;;8.81;;
39294;SDS011;52361;52.100;5.248;2022-12-19T00:53:38;18.41;;;8.6;;
39294;SDS011;52361;52.100;5.248;2022-12-19T00:55:15;14.9;;;8.81;;
39294;SDS011;52361;52.100;5.248;2022-12-19T00:58:28;18.61;;;9.0;;
39294;SDS011;52361;52.100;5.248;2022-12-19T01:00:04;21.5;;;9.81;;
39294;SDS011;52361;52.100;5.248;2022-12-19T01:01:41;15.4;;;8.9;;
39294;SDS011;52361;52.100;5.248;2022-12-19T01:04:53;18.41;;;8.81;;
39294;SDS011;52361;52.100;5.248;2022-12-19T01:06:30;15.7;;;9.21;;
39294;SDS011;52361;52.100;5.248;2022-12-19T01:08:06;13.3;;;9.1;;
39294;SDS011;52361;52.100;5.248;2022-12-19T01:11:18;14.0;;;7.7;;
39294;SDS011;52361;52.100;5.248;2022-12-19T01:12:56;17.5;;;8.5;;
39294;SDS011;52361;52.100;5.248;2022-12-19T01:14:33;17.5;;;8.5;;
39294;SDS011;52361;52.100;5.248;2022-12-19T01:16:10;15.9;;;9.1;;
39294;SDS011;52361;52.100;5.248;2022-12-19T01:19:24;17.41;;;9.0;;
39294;SDS011;52361;52.100;5.248;2022-12-19T01:21:02;11.3;;;7.4;;
39294;SDS011;52361;52.100;5.248;2022-12-19T01:22:42;14.2;;;7.9;;
39294;SDS011;52361;52.100;5.248;2022-12-19T01:25:55;18.91;;;8.81;;
39294;SDS011;52361;52.100;5.248;2022-12-19T01:27:32;14.1;;;7.4;;
39294;SDS011;52361;52.100;5.248;2022-12-19T01:29:08;12.3;;;6.9;;
39294;SDS011;52361;52.100;5.248;2022-12-19T01:32:22;17.0;;;8.81;;
39294;SDS011;52361;52.100;5.248;2022-12-19T01:33:58;14.9;;;8.9;;
39294;SDS011;52361;52.100;5.248;2022-12-19T01:35:35;11.9;;;7.0;;
39294;SDS011;52361;52.100;5.248;2022-12-19T01:40:24;13.5;;;7.2;;
39294;SDS011;52361;52.100;5.248;2022-12-19T01:42:00;17.41;;;9.5;;
39294;SDS011;52361;52.100;5.248;2022-12-19T01:43:52;13.3;;;7.9;;
39294;SDS011;52361;52.100;5.248;2022-12-19T01:45:34;14.1;;;7.2;;
39294;SDS011;52361;52.100;5.248;2022-12-19T01:48:48;12.7;;;6.9;;
39294;SDS011;52361;52.100;5.248;2022-12-19T01:50:26;15.5;;;8.9;;
39294;SDS011;52361;52.100;5.248;2022-12-19T01:52:07;15.2;;;7.7;;
39294;SDS011;52361;52.100;5.248;2022-12-19T01:55:25;14.2;;;7.4;;
39294;SDS011;52361;52.100;5.248;2022-12-19T01:57:03;13.6;;;7.7;;
39294;SDS011;52361;52.100;5.248;2022-12-19T01:58:45;14.0;;;7.5;;
39294;SDS011;52361;52.100;5.248;2022-12-19T02:00:24;15.5;;;9.0;;
39294;SDS011;52361;52.100;5.248;2022-12-19T02:03:55;11.6;;;7.0;;
39294;SDS011;52361;52.100;5.248;2022-12-19T02:05:33;18.5;;;9.0;;
39294;SDS011;52361;52.100;5.248;2022-12-19T02:07:09;13.3;;;7.2;;
39294;SDS011;52361;52.100;5.248;2022-12-19T02:08:47;15.1;;;8.31;;
39294;SDS011;52361;52.100;5.248;2022-12-19T02:12:00;11.4;;;7.5;;
39294;SDS011;52361;52.100;5.248;2022-12-19T02:13:38;14.2;;;8.0;;
39294;SDS011;52361;52.100;5.248;2022-12-19T02:15:15;12.4;;;6.7;;
39294;SDS011;52361;52.100;5.248;2022-12-19T02:16:53;14.0;;;7.2;;
39294;SDS011;52361;52.100;5.248;2022-12-19T02:20:49;17.11;;;7.9;;
39294;SDS011;52361;52.100;5.248;2022-12-19T02:22:44;11.2;;;6.9;;
39294;SDS011;52361;52.100;5.248;2022-12-19T02:24:47;11.3;;;5.8;;
39294;SDS011;52361;52.100;5.248;2022-12-19T02:27:16;13.1;;;6.4;;
39294;SDS011;52361;52.100;5.248;2022-12-19T02:30:15;12.9;;;7.0;;
39294;SDS011;52361;52.100;5.248;2022-12-19T02:31:54;15.0;;;7.5;;
39294;SDS011;52361;52.100;5.248;2022-12-19T02:33:39;15.5;;;7.9;;
39294;SDS011;52361;52.100;5.248;2022-12-19T02:37:09;10.21;;;5.9;;
39294;SDS011;52361;52.100;5.248;2022-12-19T02:38:49;12.1;;;6.9;;
39294;SDS011;52361;52.100;5.248;2022-12-19T02:40:36;10.7;;;6.2;;
39294;SDS011;52361;52.100;5.248;2022-12-19T02:42:23;9.9;;;6.4;;
39294;SDS011;52361;52.100;5.248;2022-12-19T02:44:02;12.2;;;6.2;;
39294;SDS011;52361;52.100;5.248;2022-12-19T02:47:18;9.81;;;6.0;;
39294;SDS011;52361;52.100;5.248;2022-12-19T02:48:55;11.8;;;6.0;;
39294;SDS011;52361;52.100;5.248;2022-12-19T02:50:34;11.2;;;5.6;;
39294;SDS011;52361;52.100;5.248;2022-12-19T02:54:20;10.1;;;5.2;;
39294;SDS011;52361;52.100;5.248;2022-12-19T02:56:03;13.8;;;7.0;;
39294;SDS011;52361;52.100;5.248;2022-12-19T02:58:06;11.5;;;6.5;;
39294;SDS011;52361;52.100;5.248;2022-12-19T03:01:43;8.2;;;4.5;;
39294;SDS011;52361;52.100;5.248;2022-12-19T03:03:26;11.8;;;5.9;;
39294;SDS011;52361;52.100;5.248;2022-12-19T03:05:13;7.1;;;4.8;;
39294;SDS011;52361;52.100;5.248;2022-12-19T03:07:02;9.5;;;5.6;;
39294;SDS011;52361;52.100;5.248;2022-12-19T03:10:35;16.3;;;8.31;;
39294;SDS011;52361;52.100;5.248;2022-12-19T03:12:17;12.3;;;5.3;;
39294;SDS011;52361;52.100;5.248;2022-12-19T03:14:03;9.4;;;6.0;;
39294;SDS011;52361;52.100;5.248;2022-12-19T03:15:42;11.6;;;6.9;;
39294;SDS011;52361;52.100;5.248;2022-12-19T03:18:55;18.11;;;8.0;;
39294;SDS011;52361;52.100;5.248;2022-12-19T03:20:35;11.9;;;5.6;;
39294;SDS011;52361;52.100;5.248;2022-12-19T03:22:18;12.2;;;6.3;;
39294;SDS011;52361;52.100;5.248;2022-12-19T03:23:55;9.5;;;5.3;;
39294;SDS011;52361;52.100;5.248;2022-12-19T03:27:11;12.2;;;5.3;;
39294;SDS011;52361;52.100;5.248;2022-12-19T03:28:56;7.8;;;5.0;;
39294;SDS011;52361;52.100;5.248;2022-12-19T03:30:38;7.8;;;5.0;;
39294;SDS011;52361;52.100;5.248;2022-12-19T03:32:17;7.6;;;5.11;;
39294;SDS011;52361;52.100;5.248;2022-12-19T03:35:37;13.0;;;5.6;;
39294;SDS011;52361;52.100;5.248;2022-12-19T03:38:57;7.0;;;4.41;;
39294;SDS011;52361;52.100;5.248;2022-12-19T03:40:37;12.7;;;5.9;;
39294;SDS011;52361;52.100;5.248;2022-12-19T03:44:00;11.7;;;5.4;;
39294;SDS011;52361;52.100;5.248;2022-12-19T03:45:40;8.71;;;4.8;;
39294;SDS011;52361;52.100;5.248;2022-12-19T03:47:25;7.8;;;4.91;;
39294;SDS011;52361;52.100;5.248;2022-12-19T03:49:09;9.4;;;5.3;;
39294;SDS011;52361;52.100;5.248;2022-12-19T03:52:33;5.5;;;4.8;;
39294;SDS011;52361;52.100;5.248;2022-12-19T03:54:26;9.0;;;5.5;;
39294;SDS011;52361;52.100;5.248;2022-12-19T03:56:08;8.6;;;4.5;;
39294;SDS011;52361;52.100;5.248;2022-12-19T03:57:52;10.4;;;4.91;;
39294;SDS011;52361;52.100;5.248;2022-12-19T03:59:35;7.7;;;4.3;;
39294;SDS011;52361;52.100;5.248;2022-12-19T04:02:53;6.8;;;3.7;;
39294;SDS011;52361;52.100;5.248;2022-12-19T04:04:33;9.31;;;4.61;;
39294;SDS011;52361;52.100;5.248;2022-12-19T04:06:13;7.8;;;4.7;;
39294;SDS011;52361;52.100;5.248;2022-12-19T04:07:49;5.4;;;3.4;;
39294;SDS011;52361;52.100;5.248;2022-12-19T04:11:09;7.3;;;3.5;;
39294;SDS011;52361;52.100;5.248;2022-12-19T04:12:57;9.5;;;4.3;;
39294;SDS011;52361;52.100;5.248;2022-12-19T04:14:37;8.9;;;4.2;;
39294;SDS011;52361;52.100;5.248;2022-12-19T04:16:15;6.4;;;3.3;;
39294;SDS011;52361;52.100;5.248;2022-12-19T04:19:40;7.9;;;4.2;;
39294;SDS011;52361;52.100;5.248;2022-12-19T04:21:24;7.2;;;4.3;;
39294;SDS011;52361;52.100;5.248;2022-12-19T04:23:07;7.4;;;4.2;;
39294;SDS011;52361;52.100;5.248;2022-12-19T04:24:49;6.6;;;4.0;;
39294;SDS011;52361;52.100;5.248;2022-12-19T04:26:29;7.3;;;4.5;;
39294;SDS011;52361;52.100;5.248;2022-12-19T04:29:56;5.3;;;3.2;;
39294;SDS011;52361;52.100;5.248;2022-12-19T04:31:35;7.2;;;4.2;;
39294;SDS011;52361;52.100;5.248;2022-12-19T04:33:12;6.5;;;4.0;;
39294;SDS011;52361;52.100;5.248;2022-12-19T04:36:25;6.6;;;4.2;;
39294;SDS011;52361;52.100;5.248;2022-12-19T04:38:02;7.2;;;4.1;;
39294;SDS011;52361;52.100;5.248;2022-12-19T04:39:39;5.6;;;3.2;;
39294;SDS011;52361;52.100;5.248;2022-12-19T04:41:15;8.5;;;4.2;;
39294;SDS011;52361;52.100;5.248;2022-12-19T04:44:28;5.3;;;3.4;;
39294;SDS011;52361;52.100;5.248;2022-12-19T04:46:04;6.5;;;3.7;;
39294;SDS011;52361;52.100;5.248;2022-12-19T04:47:40;6.0;;;4.0;;
39294;SDS011;52361;52.100;5.248;2022-12-19T04:50:52;5.7;;;3.5;;
39294;SDS011;52361;52.100;5.248;2022-12-19T04:52:29;7.7;;;4.41;;
39294;SDS011;52361;52.100;5.248;2022-12-19T04:54:06;6.1;;;2.9;;
39294;SDS011;52361;52.100;5.248;2022-12-19T04:57:18;3.5;;;2.7;;
39294;SDS011;52361;52.100;5.248;2022-12-19T04:58:55;5.5;;;3.8;;
39294;SDS011;52361;52.100;5.248;2022-12-19T05:02:09;5.11;;;4.2;;
39294;SDS011;52361;52.100;5.248;2022-12-19T05:05:21;11.5;;;3.7;;
39294;SDS011;52361;52.100;5.248;2022-12-19T05:06:57;5.4;;;2.9;;
39294;SDS011;52361;52.100;5.248;2022-12-19T05:08:33;5.3;;;3.1;;
39294;SDS011;52361;52.100;5.248;2022-12-19T05:11:48;7.4;;;3.6;;
39294;SDS011;52361;52.100;5.248;2022-12-19T05:13:24;3.5;;;3.2;;
39294;SDS011;52361;52.100;5.248;2022-12-19T05:15:00;3.7;;;2.1;;
39294;SDS011;52361;52.100;5.248;2022-12-19T05:18:13;5.3;;;3.5;;
39294;SDS011;52361;52.100;5.248;2022-12-19T05:19:49;3.5;;;2.8;;
39294;SDS011;52361;52.100;5.248;2022-12-19T05:21:25;5.4;;;3.2;;
39294;SDS011;52361;52.100;5.248;2022-12-19T05:23:02;3.7;;;2.31;;
39294;SDS011;52361;52.100;5.248;2022-12-19T05:26:14;3.2;;;2.9;;
39294;SDS011;52361;52.100;5.248;2022-12-19T05:27:51;2.7;;;2.31;;
39294;SDS011;52361;52.100;5.248;2022-12-19T05:29:27;4.7;;;3.0;;
39294;SDS011;52361;52.100;5.248;2022-12-19T05:32:43;2.6;;;2.4;;
39294;SDS011;52361;52.100;5.248;2022-12-19T05:34:20;3.0;;;2.31;;
39294;SDS011;52361;52.100;5.248;2022-12-19T05:35:56;4.2;;;2.6;;
39294;SDS011;52361;52.100;5.248;2022-12-19T05:39:08;3.4;;;2.7;;
39294;SDS011;52361;52.100;5.248;2022-12-19T05:40:44;4.91;;;2.6;;
39294;SDS011;52361;52.100;5.248;2022-12-19T05:42:20;2.8;;;2.1;;
39294;SDS011;52361;52.100;5.248;2022-12-19T05:43:57;6.0;;;2.21;;
39294;SDS011;52361;52.100;5.248;2022-12-19T05:47:09;2.4;;;2.21;;
39294;SDS011;52361;52.100;5.248;2022-12-19T05:48:45;3.8;;;2.5;;
39294;SDS011;52361;52.100;5.248;2022-12-19T05:53:34;2.1;;;1.9;;
39294;SDS011;52361;52.100;5.248;2022-12-19T05:55:11;4.0;;;2.5;;
39294;SDS011;52361;52.100;5.248;2022-12-19T05:56:47;4.8;;;2.21;;
39294;SDS011;52361;52.100;5.248;2022-12-19T06:00:00;1.9;;;1.7;;
39294;SDS011;52361;52.100;5.248;2022-12-19T06:01:37;4.2;;;2.8;;
39294;SDS011;52361;52.100;5.248;2022-12-19T06:03:13;2.6;;;2.4;;
39294;SDS011;52361;52.100;5.248;2022-12-19T06:04:49;4.0;;;2.31;;
39294;SDS011;52361;52.100;5.248;2022-12-19T06:08:01;4.8;;;2.6;;
39294;SDS011;52361;52.100;5.248;2022-12-19T06:09:38;2.9;;;2.4;;
39294;SDS011;52361;52.100;5.248;2022-12-19T06:11:14;3.9;;;3.0;;
39294;SDS011;52361;52.100;5.248;2022-12-19T06:14:26;2.7;;;1.7;;
39294;SDS011;52361;52.100;5.248;2022-12-19T06:16:03;3.0;;;1.9;;
39294;SDS011;52361;52.100;5.248;2022-12-19T06:17:41;1.7;;;1.6;;
39294;SDS011;52361;52.100;5.248;2022-12-19T06:20:56;3.8;;;2.1;;
39294;SDS011;52361;52.100;5.248;2022-12-19T06:22:33;4.0;;;2.0;;
39294;SDS011;52361;52.100;5.248;2022-12-19T06:24:09;2.9;;;2.21;;
39294;SDS011;52361;52.100;5.248;2022-12-19T06:25:46;2.21;;;1.8;;
39294;SDS011;52361;52.100;5.248;2022-12-19T06:28:58;3.5;;;2.0;;
39294;SDS011;52361;52.100;5.248;2022-12-19T06:30:34;2.7;;;2.5;;
39294;SDS011;52361;52.100;5.248;2022-12-19T06:32:10;1.9;;;1.7;;
39294;SDS011;52361;52.100;5.248;2022-12-19T06:35:24;4.1;;;2.5;;
39294;SDS011;52361;52.100;5.248;2022-12-19T06:37:00;2.6;;;2.4;;
39294;SDS011;52361;52.100;5.248;2022-12-19T06:38:36;3.6;;;1.7;;
39294;SDS011;52361;52.100;5.248;2022-12-19T06:41:49;4.2;;;2.31;;
39294;SDS011;52361;52.100;5.248;2022-12-19T06:43:25;6.2;;;2.31;;
39294;SDS011;52361;52.100;5.248;2022-12-19T06:45:01;3.0;;;2.0;;
39294;SDS011;52361;52.100;5.248;2022-12-19T06:48:14;1.5;;;1.4;;
39294;SDS011;52361;52.100;5.248;2022-12-19T06:49:51;5.3;;;3.5;;
39294;SDS011;52361;52.100;5.248;2022-12-19T06:51:28;3.3;;;2.21;;
39294;SDS011;52361;52.100;5.248;2022-12-19T06:53:04;3.5;;;1.8;;
39294;SDS011;52361;52.100;5.248;2022-12-19T06:56:17;6.6;;;3.5;;
39294;SDS011;52361;52.100;5.248;2022-12-19T06:57:53;2.5;;;2.0;;
39294;SDS011;52361;52.100;5.248;2022-12-19T06:59:30;4.5;;;2.21;;
39294;SDS011;52361;52.100;5.248;2022-12-19T07:02:50;2.5;;;1.8;;
39294;SDS011;52361;52.100;5.248;2022-12-19T07:04:28;3.2;;;2.21;;
39294;SDS011;52361;52.100;5.248;2022-12-19T07:06:07;4.5;;;2.9;;
39294;SDS011;52361;52.100;5.248;2022-12-19T07:07:44;3.7;;;2.0;;
39294;SDS011;52361;52.100;5.248;2022-12-19T07:10:56;3.4;;;2.5;;
39294;SDS011;52361;52.100;5.248;2022-12-19T07:12:33;4.1;;;1.9;;
39294;SDS011;52361;52.100;5.248;2022-12-19T07:14:09;5.11;;;3.4;;
39294;SDS011;52361;52.100;5.248;2022-12-19T07:17:23;3.6;;;1.8;;
39294;SDS011;52361;52.100;5.248;2022-12-19T07:19:01;8.5;;;2.0;;
39294;SDS011;52361;52.100;5.248;2022-12-19T07:20:37;4.41;;;2.5;;
39294;SDS011;52361;52.100;5.248;2022-12-19T07:22:14;5.0;;;2.7;;
39294;SDS011;52361;52.100;5.248;2022-12-19T07:25:27;2.5;;;2.31;;
39294;SDS011;52361;52.100;5.248;2022-12-19T07:27:03;2.5;;;2.21;;
39294;SDS011;52361;52.100;5.248;2022-12-19T07:28:42;2.8;;;2.21;;
39294;SDS011;52361;52.100;5.248;2022-12-19T07:31:54;3.6;;;2.7;;
39294;SDS011;52361;52.100;5.248;2022-12-19T07:33:31;5.2;;;3.1;;
39294;SDS011;52361;52.100;5.248;2022-12-19T07:35:07;3.6;;;2.31;;
39294;SDS011;52361;52.100;5.248;2022-12-19T07:38:20;3.7;;;2.1;;
39294;SDS011;52361;52.100;5.248;2022-12-19T07:39:56;2.21;;;1.6;;
39294;SDS011;52361;52.100;5.248;2022-12-19T07:41:34;2.31;;;2.0;;
39294;SDS011;52361;52.100;5.248;2022-12-19T07:43:11;2.21;;;2.0;;
39294;SDS011;52361;52.100;5.248;2022-12-19T07:46:23;4.1;;;2.1;;
39294;SDS011;52361;52.100;5.248;2022-12-19T07:48:03;3.4;;;2.4;;
39294;SDS011;52361;52.100;5.248;2022-12-19T07:49:42;3.0;;;2.7;;
39294;SDS011;52361;52.100;5.248;2022-12-19T07:52:54;4.1;;;2.4;;
39294;SDS011;52361;52.100;5.248;2022-12-19T07:54:32;2.6;;;2.31;;
39294;SDS011;52361;52.100;5.248;2022-12-19T07:56:08;3.8;;;2.6;;
39294;SDS011;52361;52.100;5.248;2022-12-19T07:59:20;3.3;;;2.1;;
39294;SDS011;52361;52.100;5.248;2022-12-19T08:00:57;1.7;;;1.6;;
39294;SDS011;52361;52.100;5.248;2022-12-19T08:02:34;2.9;;;2.21;;
39294;SDS011;52361;52.100;5.248;2022-12-19T08:04:10;5.4;;;2.5;;
39294;SDS011;52361;52.100;5.248;2022-12-19T08:07:22;3.0;;;2.31;;
39294;SDS011;52361;52.100;5.248;2022-12-19T08:08:58;3.7;;;1.6;;
39294;SDS011;52361;52.100;5.248;2022-12-19T08:10:34;2.9;;;2.21;;
39294;SDS011;52361;52.100;5.248;2022-12-19T08:13:47;3.1;;;2.5;;
39294;SDS011;52361;52.100;5.248;2022-12-19T08:15:24;2.9;;;2.6;;
39294;SDS011;52361;52.100;5.248;2022-12-19T08:17:00;2.1;;;1.9;;
39294;SDS011;52361;52.100;5.248;2022-12-19T08:20:13;4.41;;;1.9;;
39294;SDS011;52361;52.100;5.248;2022-12-19T08:21:49;2.6;;;2.0;;
39294;SDS011;52361;52.100;5.248;2022-12-19T08:23:25;2.1;;;1.6;;
39294;SDS011;52361;52.100;5.248;2022-12-19T08:25:03;3.5;;;1.9;;
39294;SDS011;52361;52.100;5.248;2022-12-19T08:28:16;3.9;;;2.1;;
39294;SDS011;52361;52.100;5.248;2022-12-19T08:29:52;2.6;;;1.7;;
39294;SDS011;52361;52.100;5.248;2022-12-19T08:33:04;3.8;;;2.1;;
39294;SDS011;52361;52.100;5.248;2022-12-19T08:34:42;5.7;;;2.5;;
39294;SDS011;52361;52.100;5.248;2022-12-19T08:36:18;2.5;;;1.5;;
39294;SDS011;52361;52.100;5.248;2022-12-19T08:37:54;2.4;;;2.21;;
39294;SDS011;52361;52.100;5.248;2022-12-19T08:41:06;5.0;;;1.8;;
39294;SDS011;52361;52.100;5.248;2022-12-19T08:42:43;1.6;;;1.5;;
39294;SDS011;52361;52.100;5.248;2022-12-19T08:44:20;3.2;;;2.4;;
39294;SDS011;52361;52.100;5.248;2022-12-19T08:45:58;3.0;;;2.31;;
39294;SDS011;52361;52.100;5.248;2022-12-19T08:49:10;3.4;;;2.31;;
39294;SDS011;52361;52.100;5.248;2022-12-19T08:50:48;3.9;;;2.0;;
39294;SDS011;52361;52.100;5.248;2022-12-19T08:52:26;2.4;;;1.7;;
39294;SDS011;52361;52.100;5.248;2022-12-19T08:55:38;2.6;;;1.9;;
39294;SDS011;52361;52.100;5.248;2022-12-19T08:57:14;1.8;;;1.4;;
39294;SDS011;52361;52.100;5.248;2022-12-19T08:58:51;4.61;;;2.8;;
39294;SDS011;52361;52.100;5.248;2022-12-19T09:02:03;2.5;;;2.0;;
39294;SDS011;52361;52.100;5.248;2022-12-19T09:03:39;2.21;;;2.0;;
39294;SDS011;52361;52.100;5.248;2022-12-19T09:05:16;3.1;;;2.31;;
39294;SDS011;52361;52.100;5.248;2022-12-19T09:06:53;2.5;;;2.31;;
39294;SDS011;52361;52.100;5.248;2022-12-19T09:10:06;2.5;;;2.31;;
39294;SDS011;52361;52.100;5.248;2022-12-19T09:11:43;2.0;;;1.9;;
39294;SDS011;52361;52.100;5.248;2022-12-19T09:13:19;2.5;;;2.31;;
39294;SDS011;52361;52.100;5.248;2022-12-19T09:16:32;2.5;;;1.9;;
39294;SDS011;52361;52.100;5.248;2022-12-19T09:18:08;1.7;;;1.4;;
39294;SDS011;52361;52.100;5.248;2022-12-19T09:19:44;2.9;;;2.0;;
39294;SDS011;52361;52.100;5.248;2022-12-19T09:22:59;2.9;;;1.4;;
39294;SDS011;52361;52.100;5.248;2022-12-19T09:24:35;4.0;;;2.9;;
39294;SDS011;52361;52.100;5.248;2022-12-19T09:26:11;2.21;;;2.1;;
39294;SDS011;52361;52.100;5.248;2022-12-19T09:27:48;2.21;;;2.1;;
39294;SDS011;52361;52.100;5.248;2022-12-19T09:31:01;2.5;;;1.9;;
39294;SDS011;52361;52.100;5.248;2022-12-19T09:32:40;4.61;;;2.1;;
39294;SDS011;52361;52.100;5.248;2022-12-19T09:34:16;4.7;;;1.5;;
39294;SDS011;52361;52.100;5.248;2022-12-19T09:37:31;2.7;;;1.7;;
39294;SDS011;52361;52.100;5.248;2022-12-19T09:39:08;3.0;;;2.1;;
39294;SDS011;52361;52.100;5.248;2022-12-19T09:40:49;2.21;;;2.0;;
39294;SDS011;52361;52.100;5.248;2022-12-19T09:42:39;3.5;;;2.31;;
39294;SDS011;52361;52.100;5.248;2022-12-19T09:44:31;3.1;;;1.6;;
39294;SDS011;52361;52.100;5.248;2022-12-19T09:48:10;4.1;;;3.0;;
39294;SDS011;52361;52.100;5.248;2022-12-19T09:49:49;3.2;;;2.21;;
39294;SDS011;52361;52.100;5.248;2022-12-19T09:51:30;2.5;;;1.8;;
39294;SDS011;52361;52.100;5.248;2022-12-19T09:53:12;3.8;;;2.8;;
39294;SDS011;52361;52.100;5.248;2022-12-19T09:54:56;2.7;;;2.0;;
39294;SDS011;52361;52.100;5.248;2022-12-19T09:58:19;2.7;;;2.0;;
39294;SDS011;52361;52.100;5.248;2022-12-19T10:00:10;3.2;;;2.7;;
39294;SDS011;52361;52.100;5.248;2022-12-19T10:01:51;2.9;;;1.9;;
39294;SDS011;52361;52.100;5.248;2022-12-19T10:03:33;4.3;;;2.1;;
39294;SDS011;52361;52.100;5.248;2022-12-19T10:06:59;5.9;;;2.21;;
39294;SDS011;52361;52.100;5.248;2022-12-19T10:08:37;5.2;;;2.31;;
39294;SDS011;52361;52.100;5.248;2022-12-19T10:10:15;2.5;;;2.1;;
39294;SDS011;52361;52.100;5.248;2022-12-19T10:12:00;4.5;;;2.1;;
39294;SDS011;52361;52.100;5.248;2022-12-19T10:13:54;5.3;;;2.9;;
39294;SDS011;52361;52.100;5.248;2022-12-19T10:17:37;2.31;;;2.1;;
39294;SDS011;52361;52.100;5.248;2022-12-19T10:19:35;5.7;;;3.0;;
39294;SDS011;52361;52.100;5.248;2022-12-19T10:21:23;1.9;;;1.5;;
39294;SDS011;52361;52.100;5.248;2022-12-19T10:23:11;2.4;;;2.1;;
39294;SDS011;52361;52.100;5.248;2022-12-19T10:25:10;2.4;;;1.8;;
39294;SDS011;52361;52.100;5.248;2022-12-19T10:27:05;4.2;;;2.5;;
39294;SDS011;52361;52.100;5.248;2022-12-19T10:28:55;3.2;;;2.31;;
39294;SDS011;52361;52.100;5.248;2022-12-19T10:30:52;2.0;;;1.5;;
39294;SDS011;52361;52.100;5.248;2022-12-19T10:32:46;4.8;;;1.7;;
39294;SDS011;52361;52.100;5.248;2022-12-19T10:36:16;3.0;;;2.8;;
39294;SDS011;52361;52.100;5.248;2022-12-19T10:37:54;4.8;;;2.0;;
39294;SDS011;52361;52.100;5.248;2022-12-19T10:39:45;4.2;;;2.21;;
39294;SDS011;52361;52.100;5.248;2022-12-19T10:41:31;3.6;;;2.4;;
39294;SDS011;52361;52.100;5.248;2022-12-19T10:43:10;3.6;;;2.21;;
39294;SDS011;52361;52.100;5.248;2022-12-19T10:46:36;4.2;;;2.0;;
39294;SDS011;52361;52.100;5.248;2022-12-19T10:48:18;7.0;;;2.21;;
39294;SDS011;52361;52.100;5.248;2022-12-19T10:49:55;3.5;;;2.1;;
39294;SDS011;52361;52.100;5.248;2022-12-19T10:54:47;2.7;;;1.6;;
39294;SDS011;52361;52.100;5.248;2022-12-19T10:56:24;3.7;;;2.31;;
39294;SDS011;52361;52.100;5.248;2022-12-19T10:58:10;3.0;;;2.1;;
39294;SDS011;52361;52.100;5.248;2022-12-19T10:59:53;3.2;;;2.31;;
39294;SDS011;52361;52.100;5.248;2022-12-19T11:03:14;3.5;;;2.21;;
39294;SDS011;52361;52.100;5.248;2022-12-19T11:04:50;3.8;;;1.8;;
39294;SDS011;52361;52.100;5.248;2022-12-19T11:07:31;3.9;;;2.5;;
39294;SDS011;52361;52.100;5.248;2022-12-19T11:09:15;2.8;;;2.21;;
39294;SDS011;52361;52.100;5.248;2022-12-19T11:11:12;4.8;;;2.6;;
39294;SDS011;52361;52.100;5.248;2022-12-19T11:12:50;3.8;;;2.6;;
39294;SDS011;52361;52.100;5.248;2022-12-19T11:14:28;3.9;;;2.5;;
39294;SDS011;52361;52.100;5.248;2022-12-19T11:17:44;4.41;;;2.9;;
39294;SDS011;52361;52.100;5.248;2022-12-19T11:19:21;9.1;;;3.0;;
39294;SDS011;52361;52.100;5.248;2022-12-19T11:21:04;3.1;;;1.9;;
39294;SDS011;52361;52.100;5.248;2022-12-19T11:22:50;9.9;;;2.9;;
39294;SDS011;52361;52.100;5.248;2022-12-19T11:26:14;3.7;;;2.7;;
39294;SDS011;52361;52.100;5.248;2022-12-19T11:28:04;2.31;;;1.6;;
39294;SDS011;52361;52.100;5.248;2022-12-19T11:29:51;3.8;;;2.1;;
39294;SDS011;52361;52.100;5.248;2022-12-19T11:31:27;3.4;;;2.1;;
39294;SDS011;52361;52.100;5.248;2022-12-19T11:34:47;2.31;;;1.6;;
39294;SDS011;52361;52.100;5.248;2022-12-19T11:36:27;3.0;;;2.5;;
39294;SDS011;52361;52.100;5.248;2022-12-19T11:38:09;4.7;;;2.5;;
39294;SDS011;52361;52.100;5.248;2022-12-19T11:39:52;5.2;;;2.6;;
39294;SDS011;52361;52.100;5.248;2022-12-19T11:43:18;2.1;;;1.9;;
39294;SDS011;52361;52.100;5.248;2022-12-19T11:45:05;3.4;;;2.6;;
39294;SDS011;52361;52.100;5.248;2022-12-19T11:46:51;4.3;;;2.6;;
39294;SDS011;52361;52.100;5.248;2022-12-19T11:48:35;3.2;;;2.31;;
39294;SDS011;52361;52.100;5.248;2022-12-19T11:50:18;4.5;;;2.31;;
39294;SDS011;52361;52.100;5.248;2022-12-19T11:53:47;2.8;;;1.9;;
39294;SDS011;52361;52.100;5.248;2022-12-19T11:55:35;1.8;;;1.5;;
39294;SDS011;52361;52.100;5.248;2022-12-19T11:57:18;3.2;;;2.21;;
39294;SDS011;52361;52.100;5.248;2022-12-19T11:58:55;4.5;;;2.31;;
39294;SDS011;52361;52.100;5.248;2022-12-19T12:00:35;4.61;;;2.31;;
39294;SDS011;52361;52.100;5.248;2022-12-19T12:05:43;3.2;;;1.8;;
39294;SDS011;52361;52.100;5.248;2022-12-19T12:07:21;4.2;;;2.31;;
39294;SDS011;52361;52.100;5.248;2022-12-19T12:09:03;4.41;;;3.2;;
39294;SDS011;52361;52.100;5.248;2022-12-19T12:10:54;3.9;;;2.1;;
39294;SDS011;52361;52.100;5.248;2022-12-19T12:14:33;4.1;;;1.9;;
39294;SDS011;52361;52.100;5.248;2022-12-19T12:18:11;2.7;;;2.21;;
39294;SDS011;52361;52.100;5.248;2022-12-19T12:20:05;2.4;;;1.8;;
39294;SDS011;52361;52.100;5.248;2022-12-19T12:21:56;2.8;;;2.1;;
39294;SDS011;52361;52.100;5.248;2022-12-19T12:23:46;4.91;;;2.21;;
39294;SDS011;52361;52.100;5.248;2022-12-19T12:25:42;2.4;;;1.7;;
39294;SDS011;52361;52.100;5.248;2022-12-19T12:29:20;2.4;;;2.21;;
39294;SDS011;52361;52.100;5.248;2022-12-19T12:31:01;3.4;;;1.8;;
39294;SDS011;52361;52.100;5.248;2022-12-19T12:32:54;5.2;;;2.6;;
39294;SDS011;52361;52.100;5.248;2022-12-19T12:34:44;2.0;;;1.8;;
39294;SDS011;52361;52.100;5.248;2022-12-19T12:36:32;5.0;;;2.31;;
39294;SDS011;52361;52.100;5.248;2022-12-19T12:38:22;5.9;;;2.5;;
39294;SDS011;52361;52.100;5.248;2022-12-19T12:40:23;2.1;;;1.9;;
39294;SDS011;52361;52.100;5.248;2022-12-19T12:42:59;2.7;;;2.21;;
39294;SDS011;52361;52.100;5.248;2022-12-19T12:44:49;5.2;;;2.1;;
39294;SDS011;52361;52.100;5.248;2022-12-19T12:46:31;2.9;;;2.0;;
39294;SDS011;52361;52.100;5.248;2022-12-19T12:50:00;3.4;;;2.21;;
39294;SDS011;52361;52.100;5.248;2022-12-19T12:51:38;1.9;;;1.8;;
39294;SDS011;52361;52.100;5.248;2022-12-19T12:53:16;3.1;;;2.31;;
39294;SDS011;52361;52.100;5.248;2022-12-19T12:54:57;3.1;;;2.5;;
39294;SDS011;52361;52.100;5.248;2022-12-19T12:58:40;3.6;;;1.9;;
39294;SDS011;52361;52.100;5.248;2022-12-19T13:02:46;2.1;;;1.9;;
39294;SDS011;52361;52.100;5.248;2022-12-19T13:04:30;2.7;;;1.9;;
39294;SDS011;52361;52.100;5.248;2022-12-19T13:08:00;3.4;;;1.7;;
39294;SDS011;52361;52.100;5.248;2022-12-19T13:10:13;2.31;;;1.8;;
39294;SDS011;52361;52.100;5.248;2022-12-19T13:11:54;2.8;;;1.7;;
39294;SDS011;52361;52.100;5.248;2022-12-19T13:15:32;5.7;;;2.31;;